createdAt,value
2018-10-18T00:03:17.410Z,9.77
2018-10-18T00:07:20.264Z,10.33
2018-10-18T00:11:23.167Z,9.10
2018-10-18T00:15:26.295Z,8.87
2018-10-18T00:19:29.151Z,6.07
2018-10-18T00:23:32.049Z,4.50
2018-10-18T00:27:34.984Z,5.80
2018-10-18T00:31:38.075Z,4.93
2018-10-18T00:35:41.182Z,6.87
2018-10-18T00:39:44.292Z,8.60
2018-10-18T00:43:47.132Z,8.10
2018-10-18T00:47:50.095Z,12.27
2018-10-18T00:51:52.948Z,10.30
2018-10-18T00:55:56.147Z,17.17
2018-10-18T00:59:59.005Z,15.57
2018-10-18T01:04:02.002Z,16.60
2018-10-18T01:08:05.281Z,18.53
2018-10-18T01:12:08.176Z,16.33
2018-10-18T01:16:11.219Z,13.63
2018-10-18T01:20:14.448Z,15.90
2018-10-18T01:24:17.224Z,19.93
2018-10-18T01:28:20.290Z,15.73
2018-10-18T01:32:23.135Z,15.20
2018-10-18T01:36:26.226Z,14.70
2018-10-18T01:40:29.103Z,16.50
2018-10-18T01:44:32.199Z,16.37
2018-10-18T01:48:35.264Z,17.10
2018-10-18T01:52:38.174Z,17.60
2018-10-18T01:56:41.231Z,16.40
2018-10-18T02:00:44.331Z,17.10
2018-10-18T02:04:47.423Z,22.93
2018-10-18T02:08:50.418Z,19.00
2018-10-18T02:12:53.274Z,17.77
2018-10-18T02:16:56.162Z,16.03
2018-10-18T02:20:59.026Z,17.87
2018-10-18T02:25:01.982Z,19.67
2018-10-18T02:29:04.775Z,19.10
2018-10-18T02:33:07.675Z,17.17
2018-10-18T02:37:10.855Z,17.80
2018-10-18T02:41:13.768Z,18.40
2018-10-18T02:45:16.632Z,17.87
2018-10-18T02:49:19.735Z,19.50
2018-10-18T02:53:22.590Z,19.30
2018-10-18T02:57:25.486Z,18.20
2018-10-18T03:01:28.561Z,18.20
2018-10-18T03:05:31.467Z,19.63
2018-10-18T03:09:34.315Z,17.17
2018-10-18T03:13:37.214Z,16.80
2018-10-18T03:17:40.271Z,18.60
2018-10-18T03:21:43.165Z,16.93
2018-10-18T03:25:46.015Z,15.73
2018-10-18T03:29:49.123Z,15.37
2018-10-18T03:33:51.973Z,16.10
2018-10-18T03:37:55.139Z,19.50
2018-10-18T03:41:58.216Z,16.10
2018-10-18T03:46:01.091Z,19.60
2018-10-18T03:50:03.952Z,16.30
2018-10-18T03:54:06.901Z,16.03
2018-10-18T03:58:09.704Z,15.20
2018-10-18T04:02:12.819Z,17.40
2018-10-18T04:06:16.368Z,14.60
2018-10-18T04:10:19.371Z,16.67
2018-10-18T04:14:22.279Z,14.00
2018-10-18T04:18:25.254Z,15.70
2018-10-18T04:22:28.243Z,17.50
2018-10-18T04:26:31.166Z,12.97
2018-10-18T04:30:34.036Z,17.90
2018-10-18T04:34:36.926Z,14.10
2018-10-18T04:38:40.179Z,18.60
2018-10-18T04:42:43.067Z,10.30
2018-10-18T04:46:45.916Z,15.30
2018-10-18T04:50:49.017Z,13.73
2018-10-18T04:54:51.899Z,11.20
2018-10-18T04:58:54.762Z,15.23
2018-10-18T05:02:57.864Z,9.47
2018-10-18T05:07:00.808Z,22.00
2018-10-18T05:11:03.614Z,11.37
2018-10-18T05:15:07.383Z,11.53
2018-10-18T05:19:10.257Z,13.37
2018-10-18T05:23:13.131Z,11.43
2018-10-18T05:27:16.228Z,6.90
2018-10-18T05:31:19.259Z,23.50
2018-10-18T05:35:21.966Z,9.50
2018-10-18T05:39:25.339Z,12.17
2018-10-18T05:43:28.188Z,12.40
2018-10-18T05:47:31.075Z,17.10
2018-10-18T05:51:34.155Z,21.23
2018-10-18T05:55:37.067Z,12.90
2018-10-18T05:59:39.919Z,10.60
2018-10-18T06:03:42.811Z,18.43
2018-10-18T06:07:45.799Z,14.20
2018-10-18T06:11:49.027Z,14.97
2018-10-18T06:15:51.963Z,17.23
2018-10-18T06:19:55.075Z,8.20
2018-10-18T06:23:57.919Z,14.80
2018-10-18T06:28:00.814Z,15.13
2018-10-18T06:32:03.878Z,19.03
2018-10-18T06:36:06.786Z,15.70
2018-10-18T06:40:11.722Z,13.20
2018-10-18T06:44:14.607Z,18.50
2018-10-18T06:48:17.454Z,19.93
2018-10-18T06:52:20.573Z,15.07
2018-10-18T06:56:23.422Z,11.53
2018-10-18T07:00:26.612Z,14.83
2018-10-18T07:04:29.656Z,15.23
2018-10-18T07:08:32.555Z,18.57
2018-10-18T07:12:36.180Z,15.17
2018-10-18T07:16:39.230Z,13.70
2018-10-18T07:20:42.293Z,16.53
2018-10-18T07:24:45.187Z,8.70
2018-10-18T07:28:48.030Z,14.20
2018-10-18T07:32:50.969Z,9.87
2018-10-18T07:36:54.034Z,18.37
2018-10-18T07:40:56.958Z,16.30
2018-10-18T07:44:59.850Z,16.50
2018-10-18T07:49:02.940Z,7.00
2018-10-18T07:53:05.874Z,9.57
2018-10-18T07:57:08.702Z,5.77
2018-10-18T08:01:11.755Z,10.57
2018-10-18T08:05:14.968Z,16.30
2018-10-18T08:09:17.794Z,7.80
2018-10-18T08:13:20.840Z,10.10
2018-10-18T08:17:23.744Z,7.50
2018-10-18T08:21:26.763Z,7.03
2018-10-18T08:25:29.612Z,5.47
2018-10-18T08:29:32.755Z,13.33
2018-10-18T08:33:35.609Z,13.93
2018-10-18T08:37:38.570Z,6.83
2018-10-18T08:41:41.326Z,5.83
2018-10-18T08:45:44.458Z,6.23
2018-10-18T08:49:47.422Z,9.10
2018-10-18T08:53:50.263Z,9.50
2018-10-18T08:57:53.103Z,11.70
2018-10-18T09:01:56.215Z,11.67
2018-10-18T09:05:59.059Z,9.63
2018-10-18T09:10:02.515Z,4.73
2018-10-18T09:14:05.475Z,8.80
2018-10-18T09:18:08.498Z,3.80
2018-10-18T09:22:11.542Z,6.53
2018-10-18T09:26:14.510Z,7.40
2018-10-18T09:30:17.424Z,10.03
2018-10-18T09:34:20.250Z,7.03
2018-10-18T09:38:23.129Z,12.93
2018-10-18T09:42:26.117Z,12.53
2018-10-18T09:46:28.963Z,8.80
2018-10-18T09:50:32.063Z,7.47
2018-10-18T09:54:35.107Z,4.87
2018-10-18T09:58:38.004Z,6.67
2018-10-18T10:02:46.863Z,5.83
2018-10-18T10:06:49.734Z,5.43
2018-10-18T10:10:52.599Z,6.67
2018-10-18T10:14:55.484Z,7.93
2018-10-18T10:18:58.967Z,4.10
2018-10-18T10:23:01.848Z,4.60
2018-10-18T10:27:04.687Z,4.40
2018-10-18T10:31:08.164Z,7.50
2018-10-18T10:35:10.960Z,8.20
2018-10-18T10:39:14.000Z,6.03
2018-10-18T10:43:16.988Z,4.60
2018-10-18T10:47:20.112Z,5.10
2018-10-18T10:51:23.156Z,5.27
2018-10-18T10:55:26.051Z,3.10
2018-10-18T10:59:28.895Z,6.00
2018-10-18T11:03:31.965Z,5.37
2018-10-18T11:07:34.807Z,6.10
2018-10-18T11:11:37.914Z,4.50
2018-10-18T11:15:40.755Z,3.17
2018-10-18T11:19:43.771Z,5.33
2018-10-18T11:23:46.623Z,6.23
2018-10-18T11:27:49.528Z,4.57
2018-10-18T11:31:52.424Z,3.43
2018-10-18T11:35:55.505Z,3.93
2018-10-18T11:39:58.303Z,4.60
2018-10-18T11:44:01.201Z,5.60
2018-10-18T11:48:04.240Z,9.67
2018-10-18T11:52:07.273Z,2.40
2018-10-18T11:56:10.301Z,7.00
2018-10-18T12:00:17.344Z,3.80
2018-10-18T12:04:20.391Z,6.23
2018-10-18T12:08:23.287Z,10.90
2018-10-18T12:12:26.125Z,2.83
2018-10-18T12:16:29.332Z,5.33
2018-10-18T12:20:32.303Z,4.10
2018-10-18T12:24:35.217Z,4.37
2018-10-18T12:28:38.058Z,4.23
2018-10-18T12:32:40.958Z,4.43
2018-10-18T12:36:43.818Z,3.70
2018-10-18T12:40:46.745Z,2.67
2018-10-18T12:44:49.567Z,3.40
2018-10-18T12:48:52.659Z,1.77
2018-10-18T12:52:55.516Z,4.33
2018-10-18T12:56:58.608Z,3.47
2018-10-18T13:01:01.679Z,5.10
2018-10-18T13:05:05.643Z,4.10
2018-10-18T13:09:09.164Z,4.80
2018-10-18T13:13:12.200Z,2.27
2018-10-18T13:17:15.030Z,6.50
2018-10-18T13:21:18.075Z,9.20
2018-10-18T13:25:21.147Z,7.20
2018-10-18T13:29:24.014Z,1.70
2018-10-18T13:33:26.947Z,7.93
2018-10-18T13:37:29.919Z,3.27
2018-10-18T13:41:32.971Z,2.50
2018-10-18T13:45:35.850Z,5.23
2018-10-18T13:49:38.691Z,3.03
2018-10-18T13:53:42.821Z,6.20
2018-10-18T13:57:45.685Z,8.23
2018-10-18T14:01:48.554Z,4.80
2018-10-18T14:05:51.607Z,3.70
2018-10-18T14:09:54.483Z,8.03
2018-10-18T14:13:57.371Z,3.57
2018-10-18T14:18:00.515Z,4.90
2018-10-18T14:22:03.390Z,4.40
2018-10-18T14:26:06.375Z,2.67
2018-10-18T14:30:10.450Z,5.53
2018-10-18T14:34:13.347Z,3.53
2018-10-18T14:38:16.233Z,5.00
2018-10-18T14:42:19.295Z,4.53
2018-10-18T14:46:22.154Z,9.50
2018-10-18T14:50:25.255Z,3.43
2018-10-18T14:54:28.087Z,5.20
2018-10-18T14:58:30.983Z,7.03
2018-10-18T15:02:34.047Z,2.63
2018-10-18T15:06:37.135Z,6.50
2018-10-18T15:10:39.999Z,5.70
2018-10-18T15:14:42.916Z,3.80
2018-10-18T15:18:45.963Z,4.03
2018-10-18T15:22:48.986Z,4.10
2018-10-18T15:26:51.888Z,3.20
2018-10-18T15:30:54.899Z,3.87
2018-10-18T15:34:57.966Z,4.53
2018-10-18T15:39:01.041Z,6.00
2018-10-18T15:43:04.359Z,6.87
2018-10-18T15:47:07.404Z,4.77
2018-10-18T15:51:10.502Z,6.23
2018-10-18T15:55:13.327Z,4.00
2018-10-18T15:59:16.185Z,4.20
2018-10-18T16:03:19.155Z,4.67
2018-10-18T16:07:22.412Z,3.40
2018-10-18T16:11:25.533Z,2.57
2018-10-18T16:15:28.354Z,9.27
2018-10-18T16:19:31.258Z,3.37
2018-10-18T16:23:34.478Z,2.20
2018-10-18T16:27:37.395Z,2.77
2018-10-18T16:31:40.452Z,2.07
2018-10-18T16:35:43.395Z,3.67
2018-10-18T16:39:46.250Z,3.63
2018-10-18T16:43:49.231Z,4.23
2018-10-18T16:47:52.161Z,4.70
2018-10-18T16:51:54.981Z,2.43
2018-10-18T16:55:58.063Z,4.00
2018-10-18T17:00:00.984Z,3.70
2018-10-18T17:04:03.847Z,3.20
2018-10-18T17:08:06.817Z,2.27
2018-10-18T17:12:09.876Z,3.67
2018-10-18T17:16:13.857Z,5.23
2018-10-18T17:20:16.994Z,5.90
2018-10-18T17:24:19.770Z,1.70
2018-10-18T17:28:22.617Z,1.70
2018-10-18T17:32:25.820Z,4.80
2018-10-18T17:36:28.787Z,4.60
2018-10-18T17:40:31.675Z,3.20
2018-10-18T17:44:34.574Z,2.57
2018-10-18T17:48:37.631Z,5.00
2018-10-18T17:52:40.522Z,3.30
2018-10-18T17:56:43.368Z,5.30
2018-10-18T18:00:46.273Z,5.17
2018-10-18T18:04:49.497Z,4.73
2018-10-18T18:08:52.395Z,2.70
2018-10-18T18:12:55.452Z,4.43
2018-10-18T18:16:58.360Z,5.23
2018-10-18T18:21:01.194Z,4.90
2018-10-18T18:25:04.814Z,4.13
2018-10-18T18:29:07.867Z,3.33
2018-10-18T18:33:10.823Z,6.67
2018-10-18T18:37:13.819Z,5.03
2018-10-18T18:41:16.969Z,2.17
2018-10-18T18:45:20.843Z,4.73
2018-10-18T18:49:23.928Z,4.73
2018-10-18T18:53:26.827Z,5.00
2018-10-18T18:57:29.826Z,3.50
2018-10-18T19:01:32.674Z,5.43
2018-10-18T19:05:35.557Z,8.90
2018-10-18T19:09:38.399Z,7.43
2018-10-18T19:13:41.526Z,6.97
2018-10-18T19:17:44.390Z,8.37
2018-10-18T19:21:47.310Z,6.83
2018-10-18T19:25:50.159Z,3.70
2018-10-18T19:29:53.279Z,7.00
2018-10-18T19:33:56.322Z,4.23
2018-10-18T19:37:59.399Z,6.83
2018-10-18T19:42:02.382Z,8.63
2018-10-18T19:46:05.525Z,5.53
2018-10-18T19:50:08.542Z,5.80
2018-10-18T19:54:11.355Z,3.40
2018-10-18T19:58:14.458Z,4.10
2018-10-18T20:02:17.211Z,4.70
2018-10-18T20:06:20.568Z,4.70
2018-10-18T20:10:23.420Z,7.40
2018-10-18T20:14:27.020Z,5.03
2018-10-18T20:18:29.922Z,2.20
2018-10-18T20:22:32.762Z,6.13
2018-10-18T20:26:35.792Z,5.77
2018-10-18T20:30:38.843Z,10.07
2018-10-18T20:34:41.814Z,3.80
2018-10-18T20:38:44.731Z,6.70
2018-10-18T20:42:47.819Z,8.80
2018-10-18T20:46:50.899Z,8.37
2018-10-18T20:50:53.801Z,5.70
2018-10-18T20:54:56.879Z,4.03
2018-10-18T20:58:59.730Z,5.87
2018-10-18T21:03:03.062Z,3.23
2018-10-18T21:07:05.846Z,8.83
2018-10-18T21:11:08.875Z,3.50
2018-10-18T21:15:11.689Z,3.80
2018-10-18T21:19:14.618Z,5.30
2018-10-18T21:23:19.035Z,4.50
2018-10-18T21:27:21.922Z,6.77
2018-10-18T21:31:24.765Z,5.43
2018-10-18T21:35:27.835Z,4.43
2018-10-18T21:39:35.039Z,2.73
2018-10-18T21:43:37.934Z,3.13
2018-10-18T21:47:41.059Z,4.30
2018-10-18T21:51:43.954Z,2.37
2018-10-18T21:55:46.799Z,3.97
2018-10-18T21:59:49.891Z,6.80
2018-10-18T22:03:52.746Z,5.70
2018-10-18T22:07:55.839Z,1.70
2018-10-18T22:11:58.678Z,3.20
2018-10-18T22:16:01.574Z,1.87
2018-10-18T22:20:04.994Z,3.53
2018-10-18T22:24:09.449Z,4.53
2018-10-18T22:28:12.503Z,2.93
2018-10-18T22:32:15.394Z,2.47
2018-10-18T22:36:18.246Z,9.53
2018-10-18T22:40:21.149Z,5.63
2018-10-18T22:44:23.982Z,3.20
2018-10-18T22:48:27.479Z,3.37
2018-10-18T22:52:30.371Z,2.97
2018-10-18T22:56:33.547Z,3.27
2018-10-18T23:00:36.384Z,6.53
2018-10-18T23:04:39.370Z,7.93
2018-10-18T23:08:42.322Z,3.23
2018-10-18T23:12:45.210Z,3.73
2018-10-18T23:16:48.053Z,4.90
2018-10-18T23:20:51.015Z,7.90
2018-10-18T23:24:53.858Z,5.17
2018-10-18T23:28:57.037Z,2.40
2018-10-18T23:32:59.898Z,7.60
2018-10-18T23:37:02.772Z,1.40
2018-10-18T23:41:06.523Z,1.60
2018-10-18T23:45:10.344Z,1.50
2018-10-18T23:49:13.115Z,2.30
2018-10-18T23:53:16.215Z,2.27
2018-10-18T23:57:19.872Z,2.30
